Terminal Aerodrome Forecast
Issued by NWS

Home | Current Version | Previous Version | Text Only | Print | Product List | Glossary On
Versions: 1 2 3 4 5 6 7 8 9 10 11 12
000
FTAK31 PAJN 260500
TAFASI
TAF
PASI 260526Z 2606/2706 VRB03KT P6SM SKC
     FM261500 VRB03KT P6SM VCSH SCT040 OVC070
     FM261900 27005KT P6SM -SHRA OVC030
     FM270000 VRB04KT P6SM -SHRA OVC030=

USA.gov is the U.S. government's official web portal to all federal, state and local government web resources and services.